Time;durP1;ratioP1;P1;durP2;ratioP2;P2;SDS_P1;SDS_P2;PMS_P1;PMS_P2;Temp;Humidity;BMP_temperature;BMP_pressure;BME280_temperature;BME280_humidity;BME280_pressure;Samples;Min_cycle;Max_cycle;Signal;HPM_P1;HPM_P2
2021/12/15 00:02:07;;;;;;;31.48;17.63;;;;;;;7.99;87.94;101870.84;5014917;28;20038;-77
2021/12/15 00:04:32;;;;;;;32.40;18.58;;;;;;;8.01;88.00;101863.91;5012727;28;20056;-77
2021/12/15 00:06:57;;;;;;;33.17;17.88;;;;;;;8.01;87.58;101861.28;5010197;28;20125;-77
2021/12/15 00:09:23;;;;;;;29.00;17.70;;;;;;;8.03;87.99;101870.97;4990804;28;20042;-80
2021/12/15 00:11:48;;;;;;;31.73;18.60;;;;;;;8.03;87.96;101868.34;5013300;28;20167;-78
2021/12/15 00:14:17;;;;;;;29.80;17.88;;;;;;;8.05;87.25;101877.19;5017012;28;20082;-79
2021/12/15 00:16:43;;;;;;;30.70;17.83;;;;;;;8.01;87.39;101863.91;5013604;28;20053;-79
2021/12/15 00:19:09;;;;;;;33.05;17.38;;;;;;;7.99;87.20;101870.84;5017042;28;20029;-79
2021/12/15 00:21:35;;;;;;;31.17;17.65;;;;;;;7.99;87.46;101874.41;5014343;28;20042;-79
2021/12/15 00:24:03;;;;;;;28.30;16.90;;;;;;;8.04;87.06;101877.13;5014864;28;20040;-79
2021/12/15 00:26:28;;;;;;;29.33;16.65;;;;;;;8.02;87.46;101876.22;5012567;28;20034;-79
2021/12/15 00:28:55;;;;;;;27.65;16.25;;;;;;;8.02;86.91;101871.84;5010789;28;20036;-79
2021/12/15 00:31:22;;;;;;;25.60;15.77;;;;;;;8.09;87.09;101867.63;4999699;28;20041;-78
2021/12/15 00:33:48;;;;;;;29.35;17.02;;;;;;;8.00;87.04;101868.28;5017775;28;20042;-78
2021/12/15 00:36:16;;;;;;;28.17;16.90;;;;;;;8.01;87.28;101879.69;5016365;28;20039;-79
2021/12/15 00:38:42;;;;;;;28.25;17.00;;;;;;;8.05;86.85;101871.91;5015579;28;20041;-79
2021/12/15 00:41:09;;;;;;;29.75;17.02;;;;;;;8.01;86.60;101864.78;5013415;28;20038;-78
2021/12/15 00:43:36;;;;;;;29.73;17.02;;;;;;;7.98;86.91;101877.88;5017417;28;20041;-78
2021/12/15 00:46:02;;;;;;;29.92;16.60;;;;;;;7.99;86.45;101878.75;5020075;28;20168;-79
2021/12/15 00:48:27;;;;;;;30.42;18.02;;;;;;;7.94;86.75;101880.38;5011979;28;20045;-79
2021/12/15 00:50:53;;;;;;;30.92;17.80;;;;;;;7.98;86.04;101884.88;5016058;28;20118;-78
2021/12/15 00:53:19;;;;;;;25.77;16.25;;;;;;;7.84;86.46;101885.41;4994609;28;20030;-79
2021/12/15 00:55:45;;;;;;;28.48;17.55;;;;;;;7.89;86.99;101899.56;5015654;28;20479;-79
2021/12/15 00:58:11;;;;;;;30.15;17.70;;;;;;;7.90;86.98;101893.44;4996704;28;20037;-78
2021/12/15 01:00:58;;;;;;;27.65;17.25;;;;;;;7.84;86.70;101890.66;5015233;28;20450;-79
2021/12/15 01:03:25;;;;;;;28.58;17.50;;;;;;;7.84;86.63;101885.41;5015106;28;20046;-79
2021/12/15 01:05:53;;;;;;;27.25;16.85;;;;;;;7.87;86.70;101890.72;4998552;28;20034;-79
2021/12/15 01:08:24;;;;;;;31.13;18.17;;;;;;;7.79;86.38;101894.91;4998047;28;20425;-79
2021/12/15 01:11:12;;;;;;;31.52;19.08;;;;;;;7.77;86.62;101891.31;5016529;28;20033;-79
2021/12/15 01:22:16;;;;;;;29.15;17.60;;;;;;;7.73;87.06;101901.72;4964701;28;20046;-80
2021/12/15 01:24:42;;;;;;;29.77;17.65;;;;;;;7.74;87.31;101901.75;4993769;28;20373;-80
2021/12/15 01:27:08;;;;;;;30.98;18.25;;;;;;;7.82;86.92;101894.09;5007157;28;20187;-79
2021/12/15 01:29:33;;;;;;;28.52;16.60;;;;;;;7.82;86.83;101899.34;5011583;28;20134;-80
2021/12/15 01:31:59;;;;;;;31.30;19.27;;;;;;;7.74;86.26;101896.50;4995728;28;20037;-80
2021/12/15 01:34:25;;;;;;;29.63;17.42;;;;;;;7.68;86.38;101881.47;5006052;28;20034;-79
2021/12/15 01:36:50;;;;;;;29.23;17.00;;;;;;;7.60;86.92;101892.63;4995618;28;20089;-79
2021/12/15 01:39:16;;;;;;;29.35;18.00;;;;;;;7.55;87.04;101888.97;4993367;28;20034;-79
2021/12/15 01:41:43;;;;;;;30.45;17.27;;;;;;;7.55;87.30;101888.97;5002411;28;20068;-79
2021/12/15 01:46:54;;;;;;;29.67;18.40;;;;;;;7.53;87.79;101888.03;5014202;28;20129;-79
2021/12/15 01:49:28;;;;;;;30.02;16.95;;;;;;;7.54;87.75;101882.81;5001929;28;20045;-79
2021/12/15 01:51:57;;;;;;;27.27;16.65;;;;;;;7.59;87.11;101880.31;4998032;28;20037;-79
2021/12/15 01:54:25;;;;;;;28.45;17.67;;;;;;;7.49;87.29;101886.16;5014176;28;20501;-78
2021/12/15 01:56:51;;;;;;;33.97;18.50;;;;;;;7.37;87.63;101886.72;5012832;28;20106;-79
2021/12/15 01:59:21;;;;;;;31.77;18.42;;;;;;;7.33;87.70;101892.72;5012288;28;20404;-79
2021/12/15 02:01:47;;;;;;;30.33;18.00;;;;;;;7.30;88.28;101887.38;5012161;28;20045;-78
2021/12/15 02:04:16;;;;;;;31.85;18.92;;;;;;;7.31;87.80;101894.41;5013348;28;20034;-79
2021/12/15 02:06:44;;;;;;;35.22;19.45;;;;;;;7.33;87.83;101888.34;4995960;28;20033;-79
2021/12/15 02:09:24;;;;;;;30.15;18.23;;;;;;;7.39;88.11;101892.91;5013529;28;20062;-79
2021/12/15 02:11:50;;;;;;;28.50;17.45;;;;;;;7.41;87.98;101886.84;4993808;28;20117;-79
2021/12/15 02:14:15;;;;;;;27.92;17.83;;;;;;;7.41;87.86;101894.72;4993368;28;20493;-79
2021/12/15 02:16:41;;;;;;;30.63;17.95;;;;;;;7.41;87.76;101894.72;5012465;28;20546;-79
2021/12/15 02:19:07;;;;;;;30.67;17.00;;;;;;;7.38;87.86;101897.25;5014499;28;20036;-79
2021/12/15 02:21:33;;;;;;;27.30;16.80;;;;;;;7.33;87.74;101898.84;5015600;28;20030;-79
2021/12/15 02:24:00;;;;;;;34.08;19.05;;;;;;;7.28;87.78;101900.44;4997286;28;20107;-79
2021/12/15 02:26:38;;;;;;;30.08;17.15;;;;;;;7.36;87.01;101898.97;5012121;28;20066;-79
2021/12/15 02:29:07;;;;;;;31.83;18.95;;;;;;;7.37;87.33;101895.47;5011565;28;20146;-79
2021/12/15 02:31:54;;;;;;;30.00;17.83;;;;;;;7.37;86.63;101894.59;5012510;28;20144;-79
2021/12/15 02:39:32;;;;;;;28.42;16.98;;;;;;;7.45;86.65;101907.09;4988025;28;20105;-79
2021/12/15 02:41:57;;;;;;;29.95;18.05;;;;;;;7.47;85.75;101909.78;4985088;28;20030;-79
2021/12/15 02:44:24;;;;;;;27.70;16.65;;;;;;;7.48;85.42;101908.91;4987375;28;20518;-78
2021/12/15 02:46:52;;;;;;;28.23;16.73;;;;;;;7.54;85.44;101916.06;5003010;28;20041;-78
2021/12/15 02:49:21;;;;;;;28.45;16.95;;;;;;;7.59;85.45;101912.72;5004527;28;20392;-79
2021/12/15 02:51:49;;;;;;;26.67;16.10;;;;;;;7.53;85.38;101906.44;5001781;28;20038;-79
2021/12/15 02:54:16;;;;;;;24.52;15.38;;;;;;;7.47;85.35;101915.91;5004725;28;20045;-79
2021/12/15 02:56:43;;;;;;;27.75;16.35;;;;;;;7.49;85.00;101920.31;5003464;28;20034;-79
2021/12/15 02:59:12;;;;;;;28.55;16.33;;;;;;;7.47;85.21;101923.78;5004539;28;20412;-79
2021/12/15 03:07:25;;;;;;;28.00;16.58;;;;;;;7.44;85.33;101928.97;4946048;29;20510;-79
2021/12/15 03:15:29;;;;;;;25.77;15.25;;;;;;;7.50;84.99;101932.63;5002868;28;20050;-79
2021/12/15 03:18:12;;;;;;;24.67;15.95;;;;;;;7.55;85.34;101934.53;5008155;28;20093;-79
2021/12/15 03:20:51;;;;;;;24.20;15.82;;;;;;;7.62;84.67;101932.94;5002682;28;20046;-78
2021/12/15 03:23:24;;;;;;;26.02;15.75;;;;;;;7.63;84.84;101924.25;5003411;28;20120;-78
2021/12/15 03:25:51;;;;;;;26.65;15.85;;;;;;;7.67;84.61;101923.44;4988649;28;20070;-79
2021/12/15 03:39:06;;;;;;;24.80;15.20;;;;;;;7.79;84.67;101926.44;5002076;28;20038;-78
2021/12/15 03:41:31;;;;;;;24.88;14.30;;;;;;;7.75;84.55;101916.66;5002887;28;20139;-78
2021/12/15 03:43:57;;;;;;;22.45;14.63;;;;;;;7.74;84.61;101922.78;5013353;28;20548;-78
2021/12/15 03:46:22;;;;;;;24.17;14.25;;;;;;;7.77;84.45;101924.63;5000894;28;20043;-78
2021/12/15 03:48:48;;;;;;;22.33;14.10;;;;;;;7.79;84.38;101917.66;5002925;28;20385;-78
2021/12/15 03:51:14;;;;;;;20.85;13.65;;;;;;;7.80;84.75;101922.94;5001341;28;20409;-78
2021/12/15 03:53:41;;;;;;;23.15;15.00;;;;;;;7.81;84.91;101918.59;5003314;28;20110;-78
2021/12/15 03:56:10;;;;;;;25.27;14.10;;;;;;;7.81;84.52;101918.59;5001345;28;20431;-77
2021/12/15 03:58:35;;;;;;;21.27;13.90;;;;;;;7.82;85.35;101926.50;5000569;28;20567;-78
2021/12/15 04:01:06;;;;;;;20.92;13.23;;;;;;;7.83;84.92;101920.44;5008245;28;20033;-79
2021/12/15 04:03:38;;;;;;;25.13;14.80;;;;;;;7.79;84.96;101921.19;5005595;28;20103;-78
2021/12/15 04:06:05;;;;;;;;;;;;;;;7.71;85.27;101917.44;5006334;28;20046;-79
2021/12/15 04:08:31;;;;;;;21.10;12.32;;;;;;;7.72;85.39;101926.22;5009116;28;19964;-79
2021/12/15 04:10:58;;;;;;;23.48;14.63;;;;;;;7.69;84.87;101921.78;5009113;28;20061;-79
2021/12/15 04:13:24;;;;;;;23.50;13.95;;;;;;;7.70;85.52;101928.78;5013409;28;20030;-78
2021/12/15 04:16:04;;;;;;;21.17;13.52;;;;;;;7.76;85.62;101925.47;5011246;28;20381;-78
2021/12/15 04:18:29;;;;;;;22.83;12.90;;;;;;;7.78;84.86;101929.94;5006253;28;20121;-79
2021/12/15 04:20:55;;;;;;;23.33;12.95;;;;;;;7.81;85.10;101929.13;5011485;28;20116;-79
2021/12/15 04:23:20;;;;;;;20.27;13.25;;;;;;;7.82;84.90;101934.41;5014319;28;20495;-79
2021/12/15 04:25:51;;;;;;;20.33;12.40;;;;;;;7.86;85.04;101938.03;5014006;28;20049;-79
2021/12/15 04:28:32;;;;;;;26.98;14.15;;;;;;;7.85;84.82;101938.84;4987082;28;20041;-79
2021/12/15 04:31:00;;;;;;;23.48;14.55;;;;;;;7.87;85.03;101940.66;5006681;28;20034;-80
2021/12/15 04:33:57;;;;;;;21.75;13.55;;;;;;;7.93;84.79;101936.44;5006557;28;20042;-79
2021/12/15 04:36:27;;;;;;;23.27;14.35;;;;;;;7.95;84.58;101940.88;5000068;28;20066;-79
2021/12/15 04:38:54;;;;;;;21.08;13.38;;;;;;;7.98;83.95;101945.34;5011242;28;20034;-79
2021/12/15 04:41:20;;;;;;;21.73;13.73;;;;;;;7.98;84.04;101943.59;5005589;28;20045;-78
2021/12/15 04:43:56;;;;;;;23.98;14.68;;;;;;;7.96;83.45;101947.03;5006309;28;20045;-78
2021/12/15 04:46:27;;;;;;;22.08;13.75;;;;;;;7.90;83.34;101946.00;5005180;28;20038;-80
2021/12/15 04:48:52;;;;;;;24.38;14.43;;;;;;;7.78;83.51;101953.56;5007258;28;20044;-79
2021/12/15 04:51:19;;;;;;;27.58;16.42;;;;;;;7.82;83.61;101958.06;5005119;28;20416;-78
2021/12/15 04:53:46;;;;;;;26.63;14.18;;;;;;;7.79;83.33;101957.97;5004718;28;20084;-79
2021/12/15 04:56:12;;;;;;;28.42;15.07;;;;;;;7.81;83.21;101953.66;5009819;28;20030;-79
2021/12/15 04:58:37;;;;;;;22.83;15.10;;;;;;;7.79;82.87;101957.97;5018448;28;20049;-79
2021/12/15 05:01:07;;;;;;;22.17;13.45;;;;;;;7.77;82.80;101961.41;5016602;28;20034;-79
2021/12/15 05:03:33;;;;;;;22.38;13.18;;;;;;;7.76;83.15;101968.41;4987710;28;20038;-79
2021/12/15 05:05:58;;;;;;;19.85;13.13;;;;;;;7.65;82.27;101969.81;5007566;28;20073;-78
2021/12/15 05:08:24;;;;;;;19.63;12.65;;;;;;;7.69;83.04;101966.44;4993837;28;20072;-78
2021/12/15 05:10:51;;;;;;;17.25;11.35;;;;;;;7.70;82.86;101965.59;4989805;28;20540;-79
2021/12/15 05:13:17;;;;;;;20.42;12.20;;;;;;;7.72;82.81;101960.38;5006786;28;20045;-78
2021/12/15 05:15:42;;;;;;;19.92;12.55;;;;;;;7.70;82.60;101968.22;4990822;28;20129;-78
2021/12/15 05:18:08;;;;;;;19.65;12.30;;;;;;;7.69;82.60;101964.69;5005219;28;20065;-78
2021/12/15 05:20:38;;;;;;;19.80;12.75;;;;;;;7.73;82.48;101968.31;4997461;28;20037;-78
2021/12/15 05:23:04;;;;;;;18.95;10.93;;;;;;;7.65;82.69;101968.09;4987717;28;20035;-78
2021/12/15 05:25:29;;;;;;;18.50;12.07;;;;;;;7.65;82.63;101969.81;5005939;28;20038;-77
2021/12/15 05:27:55;;;;;;;16.15;10.82;;;;;;;7.67;81.99;101976.00;5010108;28;20031;-78
2021/12/15 05:30:20;;;;;;;15.77;10.90;;;;;;;7.67;82.71;101962.88;5010184;28;20416;-79
2021/12/15 05:32:47;;;;;;;16.98;11.18;;;;;;;7.72;82.11;101969.16;5012222;28;20041;-78
2021/12/15 05:35:16;;;;;;;17.27;11.10;;;;;;;7.69;82.37;101971.69;4997663;28;20038;-78
2021/12/15 05:37:42;;;;;;;16.80;10.63;;;;;;;7.79;82.34;101988.63;5011317;28;20038;-77
2021/12/15 05:40:09;;;;;;;15.52;10.40;;;;;;;7.73;81.57;101983.19;5010849;28;20048;-78
2021/12/15 05:42:35;;;;;;;18.40;10.98;;;;;;;7.73;82.04;101984.09;5007937;28;20044;-77
2021/12/15 05:45:01;;;;;;;16.38;11.05;;;;;;;7.76;82.34;101983.28;5008492;28;20026;-78
2021/12/15 05:47:26;;;;;;;17.67;10.05;;;;;;;7.74;81.80;101988.50;5008323;28;20469;-77
2021/12/15 05:49:53;;;;;;;15.52;10.50;;;;;;;7.75;81.98;101978.84;4996895;28;20045;-78
2021/12/15 05:52:19;;;;;;;16.55;11.10;;;;;;;7.77;82.33;101979.81;5013091;28;20444;-78
2021/12/15 05:54:46;;;;;;;16.10;9.82;;;;;;;7.73;81.31;101981.47;5007991;28;20038;-78
2021/12/15 05:57:12;;;;;;;16.05;10.88;;;;;;;7.80;81.76;101982.50;5004813;28;20129;-78
2021/12/15 05:59:38;;;;;;;21.33;12.00;;;;;;;7.82;81.75;101979.09;5010788;28;20057;-78
2021/12/15 06:02:04;;;;;;;17.27;11.32;;;;;;;7.81;81.93;101982.56;5011387;28;20042;-78
2021/12/15 06:04:30;;;;;;;15.52;10.93;;;;;;;7.81;81.26;101972.06;5010560;28;20045;-77
2021/12/15 06:06:55;;;;;;;16.95;10.77;;;;;;;7.86;81.41;101980.97;5007342;28;20034;-78
2021/12/15 06:09:20;;;;;;;16.50;10.43;;;;;;;7.87;80.94;101980.09;5005919;28;20041;-78
2021/12/15 06:11:49;;;;;;;15.05;10.20;;;;;;;7.84;81.65;101987.03;5002313;28;20361;-77
2021/12/15 06:14:22;;;;;;;17.85;10.63;;;;;;;7.86;81.38;101982.72;5003957;28;20061;-78
2021/12/15 06:16:49;;;;;;;14.23;9.77;;;;;;;7.78;81.17;101986.81;4985868;28;20947;-77
2021/12/15 06:19:14;;;;;;;15.43;10.50;;;;;;;7.79;81.19;101984.25;5004673;28;20129;-78
2021/12/15 06:21:39;;;;;;;15.32;9.52;;;;;;;7.78;81.16;101997.34;5002653;28;20092;-78
2021/12/15 06:24:05;;;;;;;15.23;10.15;;;;;;;7.78;81.45;101997.34;5003310;28;20038;-78
2021/12/15 06:26:30;;;;;;;15.27;9.85;;;;;;;7.77;80.96;102000.81;5004213;28;20073;-77
2021/12/15 06:28:56;;;;;;;16.98;11.05;;;;;;;7.78;81.00;102000.88;5003020;28;20043;-78
2021/12/15 06:31:21;;;;;;;15.73;8.88;;;;;;;7.74;81.42;102006.88;5004497;28;20030;-78
2021/12/15 06:33:47;;;;;;;14.85;9.75;;;;;;;7.79;81.94;102007.03;5007520;28;20037;-78
2021/12/15 06:36:20;;;;;;;16.83;9.93;;;;;;;7.81;81.44;102011.47;5005444;28;20038;-78
2021/12/15 06:38:48;;;;;;;;;;;;;;;7.81;80.96;102007.97;5011618;28;20092;-78
2021/12/15 06:41:14;;;;;;;19.67;10.60;;;;;;;7.79;81.67;102010.53;4997469;28;20577;-78
2021/12/15 06:43:44;;;;;;;13.95;8.15;;;;;;;7.81;81.08;102011.47;5009312;28;20042;-78
2021/12/15 06:59:31;;;;;;;14.52;9.48;;;;;;;7.86;81.66;102023.03;5007956;28;20511;-78
2021/12/15 07:01:56;;;;;;;17.63;11.20;;;;;;;7.84;81.51;102019.44;5011602;28;20057;-78
2021/12/15 07:04:22;;;;;;;13.82;9.18;;;;;;;7.86;81.30;102017.75;5005982;28;20026;-78
2021/12/15 07:06:49;;;;;;;14.00;10.18;;;;;;;7.76;81.53;102023.59;5011268;28;20400;-78
2021/12/15 07:09:15;;;;;;;15.43;9.02;;;;;;;7.74;81.85;102012.16;5008094;28;20093;-78
2021/12/15 07:11:41;;;;;;;14.30;9.60;;;;;;;7.82;81.72;102020.25;5006678;28;20038;-78
2021/12/15 07:14:07;;;;;;;15.50;9.20;;;;;;;7.80;81.41;102021.94;5006834;28;20567;-78
2021/12/15 07:16:34;;;;;;;13.38;9.20;;;;;;;7.80;81.26;102022.81;5003495;28;20081;-78
2021/12/15 07:19:10;;;;;;;13.77;9.32;;;;;;;7.83;80.91;102020.31;5002469;28;20034;-77
2021/12/15 07:21:39;;;;;;;13.90;8.73;;;;;;;7.81;81.24;102029.00;5006704;28;20049;-78
2021/12/15 07:24:06;;;;;;;13.18;8.73;;;;;;;7.76;81.27;102026.22;4987984;28;20100;-78
2021/12/15 07:26:33;;;;;;;19.35;11.57;;;;;;;7.76;82.29;102035.84;4987291;28;20084;-77
2021/12/15 07:28:58;;;;;;;16.35;9.90;;;;;;;7.79;81.22;102031.56;5001343;28;20118;-78
2021/12/15 07:31:24;;;;;;;23.35;12.55;;;;;;;7.81;82.77;102024.63;5005233;28;21000;-77
2021/12/15 07:33:49;;;;;;;19.95;11.68;;;;;;;7.89;81.60;102030.09;5003446;28;20052;-78
2021/12/15 07:36:16;;;;;;;17.90;11.52;;;;;;;7.92;81.22;102038.06;4985675;28;20169;-78
2021/12/15 07:38:41;;;;;;;15.43;9.95;;;;;;;7.98;81.64;102032.09;5006293;28;20033;-78
2021/12/15 07:41:17;;;;;;;14.52;9.57;;;;;;;8.01;80.60;102032.19;5006406;28;20034;-78
2021/12/15 07:43:43;;;;;;;14.90;10.25;;;;;;;8.03;80.85;102041.00;5005435;28;20044;-78
2021/12/15 07:46:08;;;;;;;13.85;8.88;;;;;;;8.04;80.11;102037.53;5007110;28;20034;-78
2021/12/15 07:48:34;;;;;;;12.57;9.50;;;;;;;8.05;80.07;102037.56;5013642;28;20043;-78
2021/12/15 07:51:03;;;;;;;13.80;9.10;;;;;;;8.07;79.98;102040.25;5009818;28;20042;-77
2021/12/15 07:53:28;;;;;;;14.93;9.77;;;;;;;8.04;79.86;102037.53;5007346;28;20050;-78
2021/12/15 07:55:55;;;;;;;13.27;9.27;;;;;;;8.05;79.85;102039.31;5012250;28;20495;-77
2021/12/15 07:58:22;;;;;;;14.32;9.38;;;;;;;8.04;79.76;102050.66;5012872;28;20404;-77
2021/12/15 08:00:49;;;;;;;14.57;9.48;;;;;;;7.99;79.96;102040.03;5013141;28;20515;-78
2021/12/15 08:03:16;;;;;;;15.27;9.43;;;;;;;8.02;79.56;102047.13;5007029;28;20046;-78
2021/12/15 08:05:43;;;;;;;15.50;9.05;;;;;;;8.07;79.94;102053.41;5007079;28;20038;-78
2021/12/15 08:08:08;;;;;;;14.38;9.38;;;;;;;8.08;79.41;102047.28;5007221;28;20041;-78
2021/12/15 08:10:35;;;;;;;13.30;8.65;;;;;;;8.05;79.97;102048.09;5010719;28;20112;-78
2021/12/15 08:13:00;;;;;;;14.38;9.27;;;;;;;8.06;79.59;102043.72;5003940;28;20516;-78
2021/12/15 08:15:26;;;;;;;16.58;10.00;;;;;;;8.08;79.59;102045.53;5008890;28;20044;-78
2021/12/15 08:17:52;;;;;;;16.25;10.73;;;;;;;8.11;79.49;102052.63;5004976;28;20034;-78
2021/12/15 08:20:20;;;;;;;17.50;10.32;;;;;;;8.02;78.90;102049.75;5006978;28;20046;-78
2021/12/15 08:22:46;;;;;;;14.90;8.63;;;;;;;8.10;79.38;102048.22;5005183;28;20506;-78
2021/12/15 08:25:14;;;;;;;16.15;10.00;;;;;;;8.09;79.67;102052.56;5006385;28;20030;-77
2021/12/15 08:27:39;;;;;;;13.65;8.80;;;;;;;8.13;79.42;102053.56;5005587;28;20044;-77
2021/12/15 08:30:09;;;;;;;15.18;8.95;;;;;;;8.22;79.19;102048.53;5004960;28;20046;-77
2021/12/15 08:32:34;;;;;;;18.23;10.50;;;;;;;8.19;78.78;102053.72;5008749;28;20091;-78
2021/12/15 08:35:01;;;;;;;14.40;8.50;;;;;;;8.17;78.42;102057.16;5010802;28;20446;-78
2021/12/15 08:37:26;;;;;;;17.83;11.00;;;;;;;8.04;79.12;102054.22;5012581;28;20095;-78
2021/12/15 08:39:51;;;;;;;16.85;10.10;;;;;;;8.12;78.68;102060.56;5008142;28;20038;-78
2021/12/15 08:42:17;;;;;;;16.20;10.48;;;;;;;8.20;78.71;102057.25;5008652;28;20049;-78
2021/12/15 08:44:42;;;;;;;15.40;9.88;;;;;;;8.23;78.80;102065.25;5012837;28;20191;-78
2021/12/15 08:47:08;;;;;;;16.98;9.20;;;;;;;8.26;78.33;102050.44;5005095;28;20050;-79
2021/12/15 08:49:35;;;;;;;14.38;9.35;;;;;;;8.27;78.84;102061.84;5009405;28;20042;-78
2021/12/15 08:52:02;;;;;;;15.98;8.95;;;;;;;8.23;78.82;102071.41;5019419;28;20765;-78
2021/12/15 08:54:28;;;;;;;18.88;9.55;;;;;;;8.21;78.93;102066.94;5006029;28;20102;-78
2021/12/15 08:56:55;;;;;;;16.90;10.13;;;;;;;8.15;78.63;102062.41;5008355;28;20574;-78
2021/12/15 08:59:21;;;;;;;19.95;10.52;;;;;;;8.19;78.81;102064.25;5006694;28;20033;-78
2021/12/15 09:01:47;;;;;;;14.43;8.63;;;;;;;8.17;78.99;102075.56;5008490;28;20084;-78
2021/12/15 09:04:14;;;;;;;12.68;7.88;;;;;;;8.15;78.75;102070.28;5011012;28;20058;-78
2021/12/15 09:06:40;;;;;;;15.60;9.77;;;;;;;8.18;78.72;102070.38;5016256;28;20036;-78
2021/12/15 09:09:10;;;;;;;13.10;8.30;;;;;;;8.15;78.88;102075.56;5013972;28;20400;-78
2021/12/15 09:11:37;;;;;;;14.15;7.55;;;;;;;8.19;79.14;102080.03;5014541;28;20052;-78
2021/12/15 09:14:03;;;;;;;13.20;7.90;;;;;;;8.27;79.25;102078.50;5012611;28;20042;-77
2021/12/15 09:16:32;;;;;;;11.45;7.38;;;;;;;8.28;78.57;102077.69;5012927;28;20101;-78
2021/12/15 09:18:59;;;;;;;11.75;7.95;;;;;;;8.31;78.48;102074.25;5013465;28;20078;-78
2021/12/15 09:21:27;;;;;;;11.88;7.45;;;;;;;8.31;78.73;102075.13;4989566;28;20069;-78
2021/12/15 09:23:53;;;;;;;12.45;8.60;;;;;;;8.23;78.71;102071.41;5007978;28;20402;-78
2021/12/15 09:26:20;;;;;;;12.27;7.35;;;;;;;8.34;78.40;102079.56;5005766;28;20413;-78
2021/12/15 09:28:46;;;;;;;10.13;6.65;;;;;;;8.37;78.11;102081.41;5011891;28;20081;-78
2021/12/15 09:31:14;;;;;;;10.88;7.35;;;;;;;8.38;78.73;102084.06;5008331;28;20034;-78
2021/12/15 09:33:41;;;;;;;10.65;7.10;;;;;;;8.38;78.42;102070.91;5006226;28;20026;-78
2021/12/15 09:36:07;;;;;;;12.68;8.30;;;;;;;8.42;78.63;102075.44;5010541;28;20050;-78
2021/12/15 09:38:33;;;;;;;11.63;7.50;;;;;;;8.38;78.30;102070.91;5009068;28;20036;-78
2021/12/15 09:41:01;;;;;;;10.50;7.15;;;;;;;8.46;78.65;102069.44;5005366;28;20113;-78
2021/12/15 09:43:30;;;;;;;11.02;7.13;;;;;;;8.46;78.15;102068.53;5004611;28;20061;-78
2021/12/15 10:02:35;;;;;;;10.00;7.18;;;;;;;8.57;78.13;102069.72;5012830;28;20037;-78
2021/12/15 10:05:24;;;;;;;10.30;6.25;;;;;;;8.60;78.06;102076.81;5006779;28;20034;-78
2021/12/15 10:10:43;;;;;;;9.38;6.03;;;;;;;8.51;78.64;102065.19;5006357;28;20496;-78
2021/12/15 10:19:22;;;;;;;9.93;6.55;;;;;;;8.47;78.86;102065.06;5009449;28;20040;-78
2021/12/15 10:22:25;;;;;;;9.25;5.78;;;;;;;8.51;78.81;102066.91;5007535;28;20097;-78
2021/12/15 10:24:58;;;;;;;9.57;6.40;;;;;;;8.64;78.03;102060.22;5008359;28;20042;-78
2021/12/15 10:27:44;;;;;;;9.85;6.30;;;;;;;8.72;78.32;102059.59;5015079;28;20041;-78
2021/12/15 10:30:31;;;;;;;16.63;9.55;;;;;;;8.71;79.51;102059.53;5008849;28;20041;-78
2021/12/15 10:33:08;;;;;;;11.20;7.22;;;;;;;8.78;79.03;102056.22;5010796;28;20038;-78
2021/12/15 10:35:38;;;;;;;12.93;7.35;;;;;;;8.91;78.38;102062.69;5013520;28;20038;-78
2021/12/15 10:38:18;;;;;;;11.80;7.45;;;;;;;8.87;77.84;102059.06;5006857;28;20045;-78
2021/12/15 10:40:48;;;;;;;10.20;6.97;;;;;;;8.93;78.30;102055.69;4992508;28;20042;-78
2021/12/15 10:43:14;;;;;;;12.27;7.90;;;;;;;9.03;78.18;102049.81;5004505;28;20066;-78
2021/12/15 10:45:45;;;;;;;11.70;8.20;;;;;;;9.13;78.35;102054.44;4987025;28;20092;-78
2021/12/15 10:48:20;;;;;;;11.73;7.35;;;;;;;9.17;77.57;102047.53;5005128;28;20503;-78
2021/12/15 10:50:48;;;;;;;12.68;8.27;;;;;;;9.20;77.74;102051.13;5007077;28;20065;-78
2021/12/15 10:53:13;;;;;;;10.82;7.30;;;;;;;9.24;77.14;102045.91;4997350;28;20627;-78
2021/12/15 10:55:39;;;;;;;10.52;6.13;;;;;;;9.35;77.51;102041.78;5011842;28;20075;-78
2021/12/15 10:58:30;;;;;;;10.35;6.43;;;;;;;9.35;77.17;102047.97;5003640;28;20041;-78
2021/12/15 11:00:56;;;;;;;12.45;6.57;;;;;;;9.23;77.55;102049.41;5015017;28;20038;-78
2021/12/15 11:03:31;;;;;;;9.95;5.70;;;;;;;9.19;76.90;102046.69;5004634;28;20033;-80
2021/12/15 11:05:57;;;;;;;10.65;6.18;;;;;;;9.19;77.96;102049.31;5006768;28;20038;-78
2021/12/15 11:08:22;;;;;;;9.40;6.35;;;;;;;9.28;77.95;102048.66;5011475;28;20034;-79
2021/12/15 11:10:48;;;;;;;9.70;6.57;;;;;;;9.32;77.92;102049.63;5016270;28;20087;-79
2021/12/15 11:13:15;;;;;;;11.35;7.13;;;;;;;9.27;77.59;102049.50;5012145;28;20034;-77
2021/12/15 11:15:51;;;;;;;9.77;6.35;;;;;;;9.37;78.19;102051.50;5012688;28;20038;-78
2021/12/15 11:18:22;;;;;;;8.57;6.07;;;;;;;9.47;77.38;102054.38;5016987;28;20056;-79
2021/12/15 11:21:01;;;;;;;8.85;6.32;;;;;;;9.46;78.03;102055.19;5015090;28;20123;-78
2021/12/15 11:23:29;;;;;;;8.70;6.32;;;;;;;9.43;77.96;102054.31;5010804;28;20032;-78
2021/12/15 11:26:02;;;;;;;9.32;6.50;;;;;;;9.49;78.07;102048.28;5013231;28;20504;-78
2021/12/15 11:28:28;;;;;;;;;;;;;;;9.42;77.57;102052.50;5010465;28;20042;-78
2021/12/15 11:31:12;;;;;;;8.90;5.13;;;;;;;9.28;77.59;102050.41;5010632;28;20288;-79
2021/12/15 11:33:45;;;;;;;8.40;5.57;;;;;;;9.28;78.36;102058.31;4994412;28;20077;-78
2021/12/15 11:36:14;;;;;;;9.43;5.95;;;;;;;9.27;78.16;102052.13;5013304;28;20033;-78
2021/12/15 11:38:46;;;;;;;7.82;4.93;;;;;;;9.22;78.31;102048.50;5017000;28;20036;-79
2021/12/15 11:41:15;;;;;;;8.43;5.80;;;;;;;9.14;78.69;102053.63;4992157;28;20108;-79
2021/12/15 11:43:40;;;;;;;8.90;5.40;;;;;;;9.07;79.03;102051.69;5011116;28;20041;-78
2021/12/15 11:46:28;;;;;;;12.20;6.63;;;;;;;9.10;79.56;102049.13;5010477;28;20069;-79
2021/12/15 11:49:06;;;;;;;8.95;6.10;;;;;;;8.98;79.42;102044.44;4995644;28;20030;-78
2021/12/15 11:51:38;;;;;;;9.80;6.45;;;;;;;8.94;79.57;102052.25;5006930;28;20096;-78
2021/12/15 11:54:13;;;;;;;9.23;5.88;;;;;;;9.02;79.70;102045.41;5007862;28;20046;-77
2021/12/15 11:56:38;;;;;;;8.43;5.68;;;;;;;9.02;79.52;102049.78;5007255;28;20045;-78
2021/12/15 11:59:24;;;;;;;9.60;5.80;;;;;;;9.06;79.98;102057.78;4989722;28;20033;-78
2021/12/15 12:01:57;;;;;;;8.52;5.22;;;;;;;9.00;79.76;102044.47;5009121;28;20090;-79
2021/12/15 12:04:31;;;;;;;9.18;5.93;;;;;;;9.04;79.88;102038.44;5011531;28;20034;-77
2021/12/15 12:07:10;;;;;;;9.88;6.10;;;;;;;9.07;79.50;102049.06;4992102;28;20034;-78
2021/12/15 12:09:39;;;;;;;10.68;6.72;;;;;;;9.07;80.98;102035.88;5011139;28;20038;-78
2021/12/15 12:12:06;;;;;;;10.82;7.65;;;;;;;9.18;81.45;102037.03;4992787;28;20119;-78
2021/12/15 12:14:43;;;;;;;9.10;6.15;;;;;;;9.24;81.01;102038.03;5011580;28;20404;-78
2021/12/15 12:17:14;;;;;;;11.50;7.10;;;;;;;9.13;82.33;102037.78;5005729;28;20037;-78
2021/12/15 12:19:46;;;;;;;11.20;6.90;;;;;;;9.09;82.49;102039.44;5009593;28;20033;-78
2021/12/15 12:22:13;;;;;;;11.98;6.88;;;;;;;9.00;83.59;102041.84;5006622;28;20038;-78
2021/12/15 12:24:38;;;;;;;13.05;8.02;;;;;;;8.93;84.88;102042.53;5008862;28;20034;-78
2021/12/15 12:27:05;;;;;;;9.88;6.72;;;;;;;8.91;85.03;102032.00;5009793;28;20060;-78
2021/12/15 12:29:31;;;;;;;15.55;8.32;;;;;;;8.90;86.25;102031.94;5012668;28;20061;-78
2021/12/15 12:31:56;;;;;;;10.15;7.00;;;;;;;8.97;85.61;102032.13;5016896;28;20041;-78
2021/12/15 12:34:22;;;;;;;10.88;6.60;;;;;;;8.95;85.86;102027.66;5005165;28;20432;-78
2021/12/15 12:36:48;;;;;;;12.82;7.13;;;;;;;9.10;85.39;102025.41;5007520;28;20042;-78
2021/12/15 12:39:14;;;;;;;9.75;7.07;;;;;;;9.23;85.18;102025.72;5014356;28;20386;-78
2021/12/15 12:41:44;;;;;;;10.07;6.68;;;;;;;9.29;84.56;102026.72;5009068;28;20045;-78
2021/12/15 12:44:12;;;;;;;9.32;6.45;;;;;;;9.26;85.16;102026.66;5006019;28;20042;-78
2021/12/15 12:46:47;;;;;;;9.70;6.65;;;;;;;9.30;84.23;102027.59;4987138;28;20051;-78